Time;durP1;ratioP1;P1;durP2;ratioP2;P2;SDS_P1;SDS_P2;PMS_P1;PMS_P2;Temp;Humidity;BMP_temperature;BMP_pressure;BME280_temperature;BME280_humidity;BME280_pressure;Samples;Min_cycle;Max_cycle;Signal;HPM_P1;HPM_P2
2023/09/20 00:02:18;;;;;;;2.70;2.30;;;;;;;-128.00;-1.00;-1.00;101019;317;1003845;-30
2023/09/20 00:04:47;;;;;;;4.90;2.70;;;;;;;-128.00;-1.00;-1.00;101025;317;1002642;-35
2023/09/20 00:07:13;;;;;;;0.80;0.80;;;;;;;-128.00;-1.00;-1.00;101009;317;1004352;-35
2023/09/20 00:09:39;;;;;;;5.20;2.80;;;;;;;-128.00;-1.00;-1.00;100998;316;1003663;-36
2023/09/20 00:12:05;;;;;;;3.80;3.10;;;;;;;-128.00;-1.00;-1.00;101068;317;1004146;-31
2023/09/20 00:14:30;;;;;;;5.10;3.10;;;;;;;-128.00;-1.00;-1.00;101019;317;1004169;-35
2023/09/20 00:16:57;;;;;;;4.80;3.00;;;;;;;-128.00;-1.00;-1.00;101103;321;1004719;-35
2023/09/20 00:19:23;;;;;;;7.40;3.10;;;;;;;-128.00;-1.00;-1.00;101050;316;1003046;-35
2023/09/20 00:21:49;;;;;;;3.20;2.80;;;;;;;-128.00;-1.00;-1.00;100980;317;1003918;-35
2023/09/20 00:24:14;;;;;;;3.00;2.30;;;;;;;-128.00;-1.00;-1.00;101029;317;1004754;-30
2023/09/20 00:26:40;;;;;;;5.60;4.00;;;;;;;-128.00;-1.00;-1.00;100972;318;1004245;-34
2023/09/20 00:29:05;;;;;;;3.50;2.60;;;;;;;-128.00;-1.00;-1.00;101025;317;1003718;-30
2023/09/20 00:31:32;;;;;;;3.40;3.00;;;;;;;-128.00;-1.00;-1.00;100971;317;1003425;-31
2023/09/20 00:33:58;;;;;;;5.90;2.60;;;;;;;-128.00;-1.00;-1.00;100711;317;1003323;-30
2023/09/20 01:18:19;;;;;;;9.50;3.10;;;;;;;-100.12;19.20;19847.74;36797;318;7504868;-36
2023/09/20 01:20:47;;;;;;;7.90;3.80;;;;;;;-128.00;-1.00;-1.00;19093;319;7504771;-32
2023/09/20 01:29:20;;;;;;;2.80;2.10;;;;;;;;;;105960;298;602080;-34
2023/09/20 01:31:47;;;;;;;3.70;3.20;;;;;;;;;;106277;300;22967;-31
2023/09/20 01:34:13;;;;;;;6.90;2.70;;;;;;;;;;106146;300;25202;-35
2023/09/20 01:36:41;;;;;;;6.10;3.20;;;;;;;;;;106186;300;24112;-30
2023/09/20 01:39:08;;;;;;;8.00;2.50;;;;;;;;;;106215;300;22545;-36
2023/09/20 01:41:34;;;;;;;1.70;1.30;;;;;;;;;;106173;300;22864;-36
2023/09/20 01:43:59;;;;;;;3.90;2.50;;;;;;;;;;105906;299;483618;-33
2023/09/20 01:46:25;;;;;;;3.40;2.00;;;;;;;;;;106217;298;22559;-31
2023/09/20 01:48:51;;;;;;;4.00;3.10;;;;;;;;;;106325;299;23257;-33
2023/09/20 01:51:19;;;;;;;3.70;2.30;;;;;;;;;;106317;298;23997;-35
2023/09/20 01:53:45;;;;;;;2.50;2.30;;;;;;;;;;106330;298;25224;-36
2023/09/20 01:56:11;;;;;;;4.40;2.60;;;;;;;;;;106325;298;22566;-35
2023/09/20 01:58:37;;;;;;;2.70;1.90;;;;;;;;;;106361;298;25237;-35
2023/09/20 02:01:03;;;;;;;6.50;2.70;;;;;;;;;;106338;298;22986;-30
2023/09/20 02:03:31;;;;;;;3.10;2.30;;;;;;;;;;106208;300;26392;-32
2023/09/20 02:05:58;;;;;;;4.00;2.60;;;;;;;;;;106402;298;24081;-31
2023/09/20 02:08:25;;;;;;;2.60;1.90;;;;;;;;;;106345;298;23959;-34
2023/09/20 02:10:51;;;;;;;3.60;2.00;;;;;;;;;;106277;298;22869;-35
2023/09/20 02:13:18;;;;;;;2.20;1.90;;;;;;;;;;106345;298;22628;-33
2023/09/20 02:15:44;;;;;;;2.70;2.30;;;;;;;;;;106236;299;24157;-31
2023/09/20 02:18:10;;;;;;;5.30;2.20;;;;;;;;;;106274;298;24286;-35
2023/09/20 02:20:36;;;;;;;2.60;2.20;;;;;;;;;;106357;298;24142;-30
2023/09/20 02:23:03;;;;;;;3.10;1.30;;;;;;;;;;106355;303;22862;-31
2023/09/20 02:25:29;;;;;;;5.10;2.30;;;;;;;;;;106312;298;24193;-35
2023/09/20 02:27:57;;;;;;;4.60;1.30;;;;;;;;;;106428;298;22616;-37
2023/09/20 02:30:28;;;;;;;2.00;1.80;;;;;;;;;;106633;295;22537;-32
2023/09/20 02:32:57;;;;;;;5.30;2.50;;;;;;;;;;106572;295;24089;-31
2023/09/20 02:35:24;;;;;;;4.80;2.70;;;;;;;;;;106662;295;24100;-32
2023/09/20 02:37:50;;;;;;;2.70;1.80;;;;;;;;;;106610;295;23995;-34
2023/09/20 02:40:19;;;;;;;3.30;2.20;;;;;;;;;;106635;295;24190;-30
2023/09/20 02:42:48;;;;;;;7.70;2.00;;;;;;;;;;106632;295;23997;-30
2023/09/20 02:45:13;;;;;;;2.80;2.10;;;;;;;;;;106584;295;24045;-35
2023/09/20 02:47:43;;;;;;;2.10;1.80;;;;;;;;;;106529;295;24190;-35
2023/09/20 02:50:10;;;;;;;4.20;1.70;;;;;;;;;;106464;295;24083;-31
2023/09/20 02:52:36;;;;;;;3.00;2.10;;;;;;;;;;106568;295;24189;-31
2023/09/20 02:55:07;;;;;;;1.80;1.20;;;;;;;;;;106493;295;24129;-31
2023/09/20 02:57:38;;;;;;;2.60;2.10;;;;;;;;;;106531;295;22533;-35
2023/09/20 03:00:06;;;;;;;3.20;1.90;;;;;;;;;;106534;295;25116;-37
2023/09/20 03:02:34;;;;;;;2.70;2.30;;;;;;;;;;106591;295;22590;-35
2023/09/20 03:05:00;;;;;;;3.80;1.90;;;;;;;;;;106571;295;24075;-35
2023/09/20 03:07:26;;;;;;;6.80;2.50;;;;;;;;;;106594;295;24190;-30
2023/09/20 03:09:52;;;;;;;3.30;2.50;;;;;;;;;;106531;295;22862;-30
2023/09/20 03:12:17;;;;;;;2.60;1.60;;;;;;;;;;106625;295;24075;-36
2023/09/20 03:14:45;;;;;;;2.50;1.90;;;;;;;;;;106586;295;24190;-31
2023/09/20 03:17:12;;;;;;;4.50;1.60;;;;;;;;;;106603;295;22861;-31
2023/09/20 03:19:38;;;;;;;8.50;1.40;;;;;;;;;;106539;295;22543;-34
2023/09/20 03:22:04;;;;;;;2.80;1.80;;;;;;;;;;106525;295;22866;-34
2023/09/20 03:24:29;;;;;;;2.80;1.70;;;;;;;;;;106528;295;22606;-35
2023/09/20 03:26:55;;;;;;;2.20;1.70;;;;;;;;;;106628;295;24047;-29
2023/09/20 03:29:23;;;;;;;1.80;1.50;;;;;;;;;;106504;295;24079;-34
2023/09/20 03:31:49;;;;;;;1.70;1.50;;;;;;;;;;106633;295;22861;-34
2023/09/20 03:34:15;;;;;;;1.90;1.40;;;;;;;;;;106596;295;22535;-29
2023/09/20 03:36:41;;;;;;;3.70;2.00;;;;;;;;;;106491;295;22606;-30
2023/09/20 03:39:11;;;;;;;3.30;1.90;;;;;;;;;;106619;299;24081;-30
2023/09/20 03:41:38;;;;;;;6.20;2.00;;;;;;;;;;106635;295;24052;-30
2023/09/20 03:44:05;;;;;;;5.40;2.50;;;;;;;;;;106639;295;22883;-32
2023/09/20 03:46:32;;;;;;;1.80;1.30;;;;;;;;;;106446;295;24167;-30
2023/09/20 03:48:58;;;;;;;2.70;1.80;;;;;;;;;;106598;295;24075;-34
2023/09/20 03:51:23;;;;;;;1.70;1.40;;;;;;;;;;106611;295;23259;-36
2023/09/20 03:53:49;;;;;;;1.70;1.30;;;;;;;;;;106451;297;22593;-39
2023/09/20 03:56:15;;;;;;;3.00;1.40;;;;;;;;;;106614;295;22537;-30
2023/09/20 03:58:41;;;;;;;3.80;1.80;;;;;;;;;;106559;295;24078;-31
2023/09/20 04:01:08;;;;;;;4.10;2.50;;;;;;;;;;106603;295;24207;-31
2023/09/20 04:03:34;;;;;;;2.40;1.80;;;;;;;;;;106510;295;22660;-35
2023/09/20 04:06:01;;;;;;;2.10;1.90;;;;;;;;;;106623;295;23427;-33
2023/09/20 04:08:26;;;;;;;3.90;1.70;;;;;;;;;;106460;295;24075;-34
2023/09/20 04:10:52;;;;;;;1.40;1.10;;;;;;;;;;106580;295;24039;-30
2023/09/20 04:13:17;;;;;;;2.40;1.90;;;;;;;;;;106560;295;22615;-30
2023/09/20 04:15:44;;;;;;;2.40;1.40;;;;;;;;;;106560;295;24182;-35
2023/09/20 04:18:11;;;;;;;2.40;1.20;;;;;;;;;;106655;295;22983;-31
2023/09/20 04:20:37;;;;;;;3.10;2.00;;;;;;;;;;106553;295;24189;-32
2023/09/20 04:23:03;;;;;;;2.80;1.40;;;;;;;;;;106574;295;22559;-35
2023/09/20 04:25:29;;;;;;;1.80;1.30;;;;;;;;;;106509;295;22590;-31
2023/09/20 04:27:54;;;;;;;3.10;2.10;;;;;;;;;;106511;295;22963;-35
2023/09/20 04:30:20;;;;;;;2.60;1.40;;;;;;;;;;106556;295;24158;-32
2023/09/20 04:32:46;;;;;;;3.70;1.70;;;;;;;;;;106431;295;23994;-36
2023/09/20 04:35:11;;;;;;;6.10;1.80;;;;;;;;;;106630;295;23262;-30
2023/09/20 04:37:36;;;;;;;6.80;1.80;;;;;;;;;;106615;295;22865;-31
2023/09/20 04:40:03;;;;;;;2.20;1.70;;;;;;;;;;106607;295;24009;-31
2023/09/20 04:42:32;;;;;;;6.10;1.10;;;;;;;;;;106642;295;22477;-29
2023/09/20 04:44:58;;;;;;;2.80;1.70;;;;;;;;;;106549;295;24189;-32
2023/09/20 04:47:24;;;;;;;10.70;1.70;;;;;;;;;;106511;295;24110;-34
2023/09/20 04:49:50;;;;;;;3.90;2.40;;;;;;;;;;106559;295;23997;-36
2023/09/20 04:52:16;;;;;;;1.70;1.40;;;;;;;;;;106585;295;23291;-35
2023/09/20 04:54:43;;;;;;;1.80;1.30;;;;;;;;;;106496;296;24006;-34
2023/09/20 04:57:09;;;;;;;2.60;1.80;;;;;;;;;;106620;295;23061;-31
2023/09/20 04:59:36;;;;;;;3.00;2.20;;;;;;;;;;106632;295;22705;-35
2023/09/20 05:02:03;;;;;;;3.80;2.10;;;;;;;;;;106561;295;23166;-30
2023/09/20 05:04:29;;;;;;;2.60;1.80;;;;;;;;;;106589;295;22967;-34
2023/09/20 05:06:55;;;;;;;2.40;1.90;;;;;;;;;;106588;295;24072;-30
2023/09/20 05:09:20;;;;;;;2.00;1.60;;;;;;;;;;106571;295;22722;-35
2023/09/20 05:11:46;;;;;;;2.30;1.10;;;;;;;;;;106571;295;24394;-31
2023/09/20 05:14:11;;;;;;;5.80;1.60;;;;;;;;;;106464;295;22550;-36
2023/09/20 05:16:37;;;;;;;4.70;1.60;;;;;;;;;;106409;296;22609;-35
2023/09/20 05:19:03;;;;;;;3.40;1.30;;;;;;;;;;106541;295;24070;-31
2023/09/20 05:21:29;;;;;;;1.90;1.40;;;;;;;;;;106534;295;22540;-29
2023/09/20 05:23:55;;;;;;;2.20;1.20;;;;;;;;;;106590;295;22947;-32
2023/09/20 05:26:21;;;;;;;4.40;1.80;;;;;;;;;;106516;295;22548;-30
2023/09/20 05:28:47;;;;;;;3.10;1.00;;;;;;;;;;106525;295;24189;-30
2023/09/20 05:31:14;;;;;;;2.30;1.60;;;;;;;;;;106496;295;22880;-35
2023/09/20 05:33:39;;;;;;;2.00;1.00;;;;;;;;;;106582;295;24122;-35
2023/09/20 05:36:05;;;;;;;2.80;1.40;;;;;;;;;;106580;295;22581;-33
2023/09/20 05:38:30;;;;;;;1.70;1.40;;;;;;;;;;106578;295;24075;-33
2023/09/20 05:40:56;;;;;;;9.80;1.60;;;;;;;;;;106474;295;24151;-31
2023/09/20 05:43:21;;;;;;;2.40;1.40;;;;;;;;;;106543;295;24221;-30
2023/09/20 05:45:47;;;;;;;2.40;1.30;;;;;;;;;;106477;296;22964;-30
2023/09/20 05:48:12;;;;;;;5.20;1.40;;;;;;;;;;106631;295;22545;-34
2023/09/20 05:50:38;;;;;;;2.30;1.20;;;;;;;;;;106504;295;24002;-30
2023/09/20 05:53:06;;;;;;;1.80;1.20;;;;;;;;;;106510;295;24068;-30
2023/09/20 05:55:38;;;;;;;1.60;1.30;;;;;;;;;;106494;295;22862;-31
2023/09/20 05:58:03;;;;;;;4.90;1.00;;;;;;;;;;106617;295;22619;-29
2023/09/20 06:00:29;;;;;;;1.60;1.00;;;;;;;;;;106526;295;24078;-31
2023/09/20 06:02:59;;;;;;;2.40;1.40;;;;;;;;;;106569;295;22819;-36
2023/09/20 06:05:24;;;;;;;1.40;1.20;;;;;;;;;;106628;295;24052;-32
2023/09/20 06:07:51;;;;;;;4.70;0.80;;;;;;;;;;106491;295;22865;-30
2023/09/20 06:10:17;;;;;;;1.40;1.00;;;;;;;;;;106514;295;22858;-36
2023/09/20 06:12:43;;;;;;;4.90;1.50;;;;;;;;;;106604;295;25435;-32
2023/09/20 06:15:10;;;;;;;3.70;1.20;;;;;;;;;;106603;299;22940;-30
2023/09/20 06:17:36;;;;;;;1.70;1.00;;;;;;;;;;106554;295;22606;-36
2023/09/20 06:20:02;;;;;;;2.20;1.10;;;;;;;;;;106628;295;24075;-30
2023/09/20 06:22:28;;;;;;;1.90;0.80;;;;;;;;;;106553;295;24078;-31
2023/09/20 06:24:56;;;;;;;2.40;1.10;;;;;;;;;;106614;295;22612;-30
2023/09/20 06:27:22;;;;;;;1.50;0.70;;;;;;;;;;106465;296;22540;-36
2023/09/20 06:29:48;;;;;;;2.30;0.90;;;;;;;;;;106545;295;24038;-33
2023/09/20 06:32:15;;;;;;;2.50;0.80;;;;;;;;;;106653;295;24075;-30
2023/09/20 06:34:41;;;;;;;1.70;0.70;;;;;;;;;;106491;295;22750;-31
2023/09/20 06:37:07;;;;;;;1.50;0.80;;;;;;;;;;106565;295;22556;-29
2023/09/20 06:39:33;;;;;;;1.70;1.10;;;;;;;;;;106534;295;22865;-35
2023/09/20 06:41:58;;;;;;;1.40;0.90;;;;;;;;;;106533;295;22612;-30
2023/09/20 06:44:24;;;;;;;1.70;0.80;;;;;;;;;;106538;295;23092;-34
2023/09/20 06:46:49;;;;;;;1.00;0.50;;;;;;;;;;106523;295;22864;-30
2023/09/20 06:49:15;;;;;;;1.40;0.70;;;;;;;;;;106599;295;24075;-30
2023/09/20 06:51:43;;;;;;;1.30;0.70;;;;;;;;;;106487;295;22986;-31
2023/09/20 06:54:08;;;;;;;2.90;1.10;;;;;;;;;;106653;295;24078;-36
2023/09/20 06:56:35;;;;;;;2.30;0.70;;;;;;;;;;106538;295;22643;-30
2023/09/20 06:59:01;;;;;;;1.40;0.60;;;;;;;;;;106567;295;22606;-30
2023/09/20 07:01:27;;;;;;;4.40;0.50;;;;;;;;;;106491;296;22980;-30
2023/09/20 07:03:52;;;;;;;2.20;0.90;;;;;;;;;;106621;295;22793;-35
2023/09/20 07:06:18;;;;;;;1.70;0.80;;;;;;;;;;106535;295;24184;-36
2023/09/20 07:08:45;;;;;;;3.40;1.50;;;;;;;;;;106600;295;24126;-31
2023/09/20 07:11:14;;;;;;;3.60;1.10;;;;;;;;;;106439;297;24093;-35
2023/09/20 07:13:40;;;;;;;2.10;1.40;;;;;;;;;;106481;295;24117;-37
2023/09/20 07:16:05;;;;;;;1.30;0.80;;;;;;;;;;106626;295;22602;-34
2023/09/20 07:18:31;;;;;;;2.80;1.10;;;;;;;;;;106597;295;22858;-30
2023/09/20 07:20:57;;;;;;;1.90;1.00;;;;;;;;;;106585;295;22543;-33
2023/09/20 07:23:23;;;;;;;1.70;0.80;;;;;;;;;;106481;295;22568;-34
2023/09/20 07:25:55;;;;;;;0.50;0.50;;;;;;;;;;106564;295;22544;-36
2023/09/20 07:28:24;;;;;;;2.40;0.80;;;;;;;;;;106607;295;24045;-31
2023/09/20 07:30:50;;;;;;;2.20;0.70;;;;;;;;;;106582;295;25113;-35
2023/09/20 07:33:19;;;;;;;1.80;0.70;;;;;;;;;;106672;295;22625;-31
2023/09/20 07:35:47;;;;;;;2.30;0.80;;;;;;;;;;106593;295;22540;-36
2023/09/20 07:38:19;;;;;;;1.80;0.80;;;;;;;;;;106543;300;22552;-35
2023/09/20 07:40:50;;;;;;;1.10;0.80;;;;;;;;;;106552;295;22687;-35
2023/09/20 07:43:16;;;;;;;6.40;1.20;;;;;;;;;;106574;295;22858;-35
2023/09/20 07:45:43;;;;;;;1.40;0.80;;;;;;;;;;106491;295;23970;-33
2023/09/20 07:48:12;;;;;;;3.80;1.10;;;;;;;;;;106604;295;24078;-33
2023/09/20 07:50:41;;;;;;;2.10;0.50;;;;;;;;;;106517;295;22547;-33
2023/09/20 07:53:10;;;;;;;2.20;0.40;;;;;;;;;;106481;296;22865;-32
2023/09/20 07:55:36;;;;;;;1.70;0.40;;;;;;;;;;106591;295;23994;-36
2023/09/20 07:58:01;;;;;;;2.10;0.70;;;;;;;;;;106604;295;22982;-31
2023/09/20 08:00:27;;;;;;;1.30;0.70;;;;;;;;;;106608;295;22562;-37
2023/09/20 08:02:54;;;;;;;3.10;1.00;;;;;;;;;;106549;295;22964;-35
2023/09/20 08:05:22;;;;;;;1.90;0.70;;;;;;;;;;106592;295;24154;-30
2023/09/20 08:07:47;;;;;;;1.90;0.90;;;;;;;;;;106546;295;22538;-38
2023/09/20 08:10:13;;;;;;;2.30;0.60;;;;;;;;;;106555;295;22747;-35
2023/09/20 08:12:39;;;;;;;1.20;0.50;;;;;;;;;;106597;295;22559;-32
2023/09/20 08:15:05;;;;;;;1.00;0.50;;;;;;;;;;106468;295;24154;-42
2023/09/20 08:20:10;;;;;;;1.00;0.60;;;;;;;;;;106582;295;22865;-33
2023/09/20 09:02:12;;;;;;;0.40;0.30;;;;;;;;;;106587;295;22983;-33
2023/09/20 09:04:38;;;;;;;0.60;0.50;;;;;;;;;;106612;295;22546;-32
2023/09/20 09:07:04;;;;;;;1.10;0.70;;;;;;;;;;106551;295;22565;-35
2023/09/20 09:09:30;;;;;;;5.80;2.00;;;;;;;;;;106476;295;22638;-34
2023/09/20 09:11:56;;;;;;;1.30;1.10;;;;;;;;;;106546;295;22987;-33
2023/09/20 09:14:23;;;;;;;2.10;0.40;;;;;;;;;;106577;295;22536;-31
2023/09/20 09:16:49;;;;;;;2.20;0.50;;;;;;;;;;106574;295;24318;-31
2023/09/20 09:19:15;;;;;;;1.00;0.60;;;;;;;;;;106509;295;22570;-36
2023/09/20 09:21:42;;;;;;;2.10;0.60;;;;;;;;;;106512;295;24071;-32
2023/09/20 09:24:08;;;;;;;1.50;0.80;;;;;;;;;;106483;295;23976;-35
2023/09/20 09:26:34;;;;;;;15.80;2.70;;;;;;;;;;106580;295;22874;-32
2023/09/20 09:29:00;;;;;;;0.80;0.40;;;;;;;;;;106480;295;22983;-31
2023/09/20 09:31:28;;;;;;;0.20;0.20;;;;;;;;;;106563;295;22540;-36
2023/09/20 09:33:54;;;;;;;2.80;0.80;;;;;;;;;;106513;295;22967;-35
2023/09/20 09:36:20;;;;;;;1.30;0.40;;;;;;;;;;106508;295;23082;-37
2023/09/20 09:38:45;;;;;;;25.40;8.60;;;;;;;;;;106441;296;22610;-35
2023/09/20 09:41:11;;;;;;;5.60;2.80;;;;;;;;;;106580;295;22865;-31
2023/09/20 09:43:36;;;;;;;1.60;0.80;;;;;;;;;;106017;295;806490;-36
2023/09/20 09:46:09;;;;;;;4.40;2.30;;;;;;;;;;106502;295;22868;-32
2023/09/20 09:48:35;;;;;;;1.80;1.10;;;;;;;;;;106575;295;25134;-35
2023/09/20 09:51:01;;;;;;;0.40;0.20;;;;;;;;;;106500;295;22553;-32
2023/09/20 09:53:30;;;;;;;0.60;0.50;;;;;;;;;;106560;295;24077;-38
2023/09/20 09:55:56;;;;;;;1.50;0.80;;;;;;;;;;106605;295;23035;-31
2023/09/20 09:58:21;;;;;;;1.50;0.50;;;;;;;;;;106572;295;22967;-31
2023/09/20 10:00:48;;;;;;;1.90;0.50;;;;;;;;;;106616;295;24053;-34
2023/09/20 10:03:23;;;;;;;1.90;0.90;;;;;;;;;;106573;295;24473;-32
2023/09/20 10:05:48;;;;;;;0.80;0.40;;;;;;;;;;106544;296;22865;-35
2023/09/20 10:08:14;;;;;;;1.70;0.50;;;;;;;;;;106446;296;22537;-32
2023/09/20 10:10:41;;;;;;;2.80;0.90;;;;;;;;;;106485;295;22858;-34
2023/09/20 10:13:11;;;;;;;8.60;0.90;;;;;;;;;;106563;295;24123;-35
2023/09/20 10:15:37;;;;;;;2.10;0.20;;;;;;;;;;106554;295;23998;-38
2023/09/20 10:18:03;;;;;;;2.30;0.60;;;;;;;;;;106532;295;26199;-35
2023/09/20 10:20:41;;;;;;;6.50;0.40;;;;;;;;;;106540;295;22540;-32
2023/09/20 10:23:06;;;;;;;0.80;0.40;;;;;;;;;;106557;295;22610;-32
2023/09/20 10:25:34;;;;;;;6.10;3.20;;;;;;;;;;106550;295;23948;-32
2023/09/20 10:28:14;;;;;;;23.50;10.30;;;;;;;;;;106461;295;22866;-34
2023/09/20 10:30:51;;;;;;;3.20;1.50;;;;;;;;;;106654;295;22572;-31
2023/09/20 10:33:36;;;;;;;1.30;0.70;;;;;;;;;;106551;296;24228;-32
2023/09/20 10:36:06;;;;;;;5.60;1.70;;;;;;;;;;106509;296;22546;-31
2023/09/20 10:38:32;;;;;;;14.60;5.40;;;;;;;;;;106548;295;22721;-33
2023/09/20 10:41:03;;;;;;;3.80;1.40;;;;;;;;;;106498;295;22963;-32
2023/09/20 10:43:43;;;;;;;1.30;0.60;;;;;;;;;;106543;298;25170;-39
2023/09/20 10:46:11;;;;;;;2.00;0.70;;;;;;;;;;106531;295;23997;-36
2023/09/20 10:48:49;;;;;;;1.00;0.50;;;;;;;;;;106484;295;23972;-33
2023/09/20 10:51:26;;;;;;;0.30;0.30;;;;;;;;;;106534;295;24118;-31
2023/09/20 10:53:55;;;;;;;5.80;0.70;;;;;;;;;;106628;295;24158;-31
2023/09/20 10:56:32;;;;;;;0.80;0.60;;;;;;;;;;106556;295;22583;-35
2023/09/20 10:58:59;;;;;;;0.90;0.60;;;;;;;;;;106641;295;24190;-35
2023/09/20 11:01:25;;;;;;;0.80;0.50;;;;;;;;;;106525;295;22865;-35
2023/09/20 11:03:51;;;;;;;0.40;0.30;;;;;;;;;;106619;295;24113;-32
2023/09/20 11:06:16;;;;;;;2.10;0.60;;;;;;;;;;106580;295;23995;-29
2023/09/20 11:08:43;;;;;;;1.10;0.50;;;;;;;;;;106559;295;22858;-35
2023/09/20 11:11:13;;;;;;;0.70;0.10;;;;;;;;;;106612;295;24113;-35
2023/09/20 11:13:41;;;;;;;2.30;0.10;;;;;;;;;;106544;295;22540;-35
2023/09/20 11:16:08;;;;;;;1.40;0.30;;;;;;;;;;106580;295;22594;-31
2023/09/20 11:18:38;;;;;;;1.30;0.40;;;;;;;;;;106452;295;24078;-38
2023/09/20 11:21:04;;;;;;;0.90;0.30;;;;;;;;;;106521;295;24084;-32
2023/09/20 11:23:30;;;;;;;2.10;1.00;;;;;;;;;;106535;295;22603;-31
2023/09/20 11:25:58;;;;;;;0.70;0.20;;;;;;;;;;106630;295;22544;-31
2023/09/20 11:28:24;;;;;;;0.60;0.50;;;;;;;;;;106454;296;22963;-36
2023/09/20 11:30:51;;;;;;;0.40;0.40;;;;;;;;;;106435;295;22538;-32
2023/09/20 11:33:29;;;;;;;0.30;0.20;;;;;;;;;;106583;295;22546;-32
2023/09/20 11:35:54;;;;;;;1.10;0.30;;;;;;;;;;106494;296;22590;-31
2023/09/20 11:38:21;;;;;;;0.40;0.30;;;;;;;;;;106517;295;22552;-39
2023/09/20 11:40:46;;;;;;;0.60;0.50;;;;;;;;;;106496;295;23997;-31
2023/09/20 11:43:17;;;;;;;0.90;0.70;;;;;;;;;;106583;295;22530;-31
2023/09/20 11:45:42;;;;;;;0.20;0.20;;;;;;;;;;106570;295;22864;-35
2023/09/20 11:48:15;;;;;;;3.40;0.20;;;;;;;;;;106516;295;24647;-37
2023/09/20 11:50:44;;;;;;;1.50;0.70;;;;;;;;;;106679;295;22590;-34
2023/09/20 11:53:14;;;;;;;1.40;0.40;;;;;;;;;;106570;295;22540;-34
2023/09/20 11:55:43;;;;;;;0.90;0.20;;;;;;;;;;106590;295;22556;-34
2023/09/20 11:58:09;;;;;;;0.60;0.50;;;;;;;;;;106621;295;24081;-31
2023/09/20 12:00:35;;;;;;;1.00;0.30;;;;;;;;;;106592;295;22586;-37
2023/09/20 12:03:00;;;;;;;0.50;0.30;;;;;;;;;;106501;295;22865;-38
2023/09/20 12:05:26;;;;;;;1.00;0.50;;;;;;;;;;106469;296;24745;-31
2023/09/20 12:07:52;;;;;;;0.40;0.30;;;;;;;;;;106557;295;22865;-34
2023/09/20 12:10:18;;;;;;;0.80;0.50;;;;;;;;;;106494;296;24113;-36
2023/09/20 12:12:43;;;;;;;0.40;0.30;;;;;;;;;;106446;295;22609;-31
2023/09/20 12:15:09;;;;;;;1.20;0.20;;;;;;;;;;106553;295;25265;-35
2023/09/20 12:17:34;;;;;;;1.30;0.50;;;;;;;;;;106473;295;22861;-36
2023/09/20 12:20:00;;;;;;;1.40;0.30;;;;;;;;;;106560;295;22586;-31
2023/09/20 12:22:26;;;;;;;0.30;0.20;;;;;;;;;;106536;295;24697;-32
2023/09/20 12:24:53;;;;;;;0.60;0.20;;;;;;;;;;106550;295;24077;-33
2023/09/20 12:27:19;;;;;;;0.30;0.20;;;;;;;;;;106569;295;22622;-36
2023/09/20 12:29:44;;;;;;;0.40;0.30;;;;;;;;;;106492;295;26247;-33
2023/09/20 12:32:11;;;;;;;0.60;0.40;;;;;;;;;;106483;297;22574;-37
2023/09/20 13:17:20;;;;;;;0.50;0.30;;;;;;;-97.16;6.98;19827.71;101605;314;1576854;-36
2023/09/20 13:19:46;;;;;;;3.40;0.70;;;;;;;-128.00;-1.00;-1.00;100594;315;1002843;-35
2023/09/20 13:22:12;;;;;;;1.80;0.60;;;;;;;-128.00;-1.00;-1.00;101180;314;1003905;-36
2023/09/20 13:24:40;;;;;;;1.30;0.30;;;;;;;-128.00;-1.00;-1.00;101017;314;1003286;-36
2023/09/20 13:27:06;;;;;;;1.20;0.50;;;;;;;-128.00;-1.00;-1.00;101142;315;1003954;-33
2023/09/20 13:29:32;;;;;;;0.90;0.50;;;;;;;-128.00;-1.00;-1.00;101070;314;1003922;-35
2023/09/20 13:31:58;;;;;;;1.10;0.60;;;;;;;-128.00;-1.00;-1.00;101176;314;1003080;-31
2023/09/20 13:34:25;;;;;;;2.90;0.80;;;;;;;-128.00;-1.00;-1.00;101187;314;1002894;-30
2023/09/20 13:36:51;;;;;;;1.30;0.40;;;;;;;-128.00;-1.00;-1.00;100999;314;1003314;-32
2023/09/20 13:39:16;;;;;;;1.80;1.10;;;;;;;-128.00;-1.00;-1.00;101229;314;1003255;-35
2023/09/20 13:41:43;;;;;;;3.20;0.80;;;;;;;-128.00;-1.00;-1.00;90941;315;1003299;-36
2023/09/20 13:44:09;;;;;;;0.60;0.40;;;;;;;-128.00;-1.00;-1.00;69645;315;3003116;-32
2023/09/20 13:46:39;;;;;;;1.30;0.80;;;;;;;-128.00;-1.00;-1.00;57954;314;3997342;-33
2023/09/20 13:49:09;;;;;;;2.80;0.90;;;;;;;-128.00;-1.00;-1.00;21892;314;7504245;-32
2023/09/20 13:51:37;;;;;;;0.50;0.40;;;;;;;-128.00;-1.00;-1.00;19069;319;7507424;-36
2023/09/20 13:54:03;;;;;;;0.50;0.40;;;;;;;-128.00;-1.00;-1.00;19107;314;7504824;-33
2023/09/20 13:56:29;;;;;;;0.70;0.30;;;;;;;-128.00;-1.00;-1.00;19109;314;7504639;-32
2023/09/20 13:58:55;;;;;;;1.10;0.50;;;;;;;-128.00;-1.00;-1.00;19088;318;7504617;-32
2023/09/20 14:01:21;;;;;;;1.80;0.80;;;;;;;-128.00;-1.00;-1.00;19094;314;7504953;-36
2023/09/20 14:03:47;;;;;;;0.90;0.70;;;;;;;-128.00;-1.00;-1.00;19096;319;7505462;-33
2023/09/20 14:06:13;;;;;;;1.60;0.60;;;;;;;-128.00;-1.00;-1.00;19104;314;7505159;-37
2023/09/20 14:08:39;;;;;;;0.80;0.60;;;;;;;-128.00;-1.00;-1.00;19116;314;7505634;-33
2023/09/20 14:11:07;;;;;;;1.00;0.70;;;;;;;-128.00;-1.00;-1.00;19088;315;7506612;-32
2023/09/20 14:13:32;;;;;;;0.20;0.20;;;;;;;-128.00;-1.00;-1.00;19104;314;7506751;-31
2023/09/20 14:15:58;;;;;;;1.50;0.50;;;;;;;-128.00;-1.00;-1.00;19103;319;7505787;-32
2023/09/20 14:18:24;;;;;;;2.50;0.70;;;;;;;-128.00;-1.00;-1.00;19107;314;7504381;-33
2023/09/20 14:20:51;;;;;;;1.60;0.80;;;;;;;-128.00;-1.00;-1.00;19112;320;7504718;-32
2023/09/20 14:23:18;;;;;;;0.60;0.50;;;;;;;-128.00;-1.00;-1.00;19081;315;7504955;-36
2023/09/20 14:25:43;;;;;;;0.90;0.40;;;;;;;-128.00;-1.00;-1.00;19113;318;7505031;-38
2023/09/20 14:28:09;;;;;;;7.20;0.60;;;;;;;-128.00;-1.00;-1.00;19090;314;7504418;-38
2023/09/20 14:30:36;;;;;;;1.40;0.80;;;;;;;-128.00;-1.00;-1.00;19112;314;7506249;-33
2023/09/20 14:33:02;;;;;;;7.40;4.00;;;;;;;-128.00;-1.00;-1.00;19082;314;7504613;-32
2023/09/20 14:35:28;;;;;;;3.00;1.40;;;;;;;-128.00;-1.00;-1.00;19099;314;7506220;-36
2023/09/20 14:37:54;;;;;;;2.90;1.30;;;;;;;-128.00;-1.00;-1.00;19088;314;7506505;-32
2023/09/20 14:40:21;;;;;;;1.70;0.70;;;;;;;-128.00;-1.00;-1.00;19110;320;7504863;-38
2023/09/20 14:42:48;;;;;;;1.70;0.30;;;;;;;-128.00;-1.00;-1.00;19103;314;7506156;-36
2023/09/20 14:45:16;;;;;;;1.00;0.50;;;;;;;-128.00;-1.00;-1.00;19103;320;7504933;-38
2023/09/20 14:47:46;;;;;;;1.70;0.80;;;;;;;-128.00;-1.00;-1.00;19061;315;7504543;-38
2023/09/20 14:50:12;;;;;;;0.70;0.40;;;;;;;-128.00;-1.00;-1.00;19109;314;7504784;-32
2023/09/20 14:52:41;;;;;;;0.80;0.60;;;;;;;-128.00;-1.00;-1.00;19108;320;7504919;-38
2023/09/20 14:55:09;;;;;;;7.70;1.00;;;;;;;-128.00;-1.00;-1.00;19115;314;7504689;-38
2023/09/20 14:57:35;;;;;;;0.40;0.40;;;;;;;-128.00;-1.00;-1.00;19103;314;7504775;-38
2023/09/20 15:00:01;;;;;;;0.70;0.60;;;;;;;-128.00;-1.00;-1.00;19100;314;7505261;-37
2023/09/20 15:02:27;;;;;;;0.90;0.70;;;;;;;-128.00;-1.00;-1.00;19095;320;7506397;-33
2023/09/20 15:04:52;;;;;;;1.00;0.80;;;;;;;-128.00;-1.00;-1.00;19067;317;7505281;-39
2023/09/20 15:07:18;;;;;;;2.30;0.60;;;;;;;-128.00;-1.00;-1.00;19030;320;7506054;-32
2023/09/20 15:09:46;;;;;;;8.10;0.90;;;;;;;-128.00;-1.00;-1.00;19106;314;7504506;-36
2023/09/20 15:12:16;;;;;;;0.80;0.40;;;;;;;-128.00;-1.00;-1.00;19098;314;7506246;-32
2023/09/20 15:14:43;;;;;;;2.70;0.50;;;;;;;-128.00;-1.00;-1.00;19098;314;7506630;-33
2023/09/20 15:17:10;;;;;;;3.00;0.70;;;;;;;-128.00;-1.00;-1.00;19101;314;7504922;-34
2023/09/20 15:19:35;;;;;;;0.30;0.20;;;;;;;-128.00;-1.00;-1.00;19084;314;7505043;-36
2023/09/20 15:22:01;;;;;;;0.60;0.30;;;;;;;-128.00;-1.00;-1.00;19110;315;7505339;-34
2023/09/20 15:24:27;;;;;;;4.40;0.50;;;;;;;-128.00;-1.00;-1.00;19107;320;7504657;-36
2023/09/20 15:26:53;;;;;;;0.60;0.50;;;;;;;-128.00;-1.00;-1.00;19057;316;7504777;-38
2023/09/20 15:29:18;;;;;;;1.50;0.50;;;;;;;-128.00;-1.00;-1.00;19095;314;7506281;-33
2023/09/20 15:31:45;;;;;;;2.60;0.40;;;;;;;-128.00;-1.00;-1.00;19056;316;7505547;-38
2023/09/20 15:34:14;;;;;;;1.20;0.50;;;;;;;-128.00;-1.00;-1.00;19074;320;7504738;-33
2023/09/20 15:36:40;;;;;;;1.30;0.60;;;;;;;-128.00;-1.00;-1.00;19100;319;7505132;-32
2023/09/20 15:39:07;;;;;;;1.40;0.90;;;;;;;-128.00;-1.00;-1.00;19523;314;7505071;-34
2023/09/20 15:41:35;;;;;;;0.70;0.50;;;;;;;-128.00;-1.00;-1.00;19099;314;7506546;-38
2023/09/20 15:44:04;;;;;;;0.60;0.60;;;;;;;-128.00;-1.00;-1.00;19097;317;7505148;-31
2023/09/20 15:46:33;;;;;;;0.50;0.40;;;;;;;-128.00;-1.00;-1.00;19072;320;7505591;-32
2023/09/20 15:48:59;;;;;;;1.40;0.50;;;;;;;-128.00;-1.00;-1.00;19098;314;7505804;-32
2023/09/20 15:51:25;;;;;;;1.20;0.70;;;;;;;-128.00;-1.00;-1.00;19110;314;7505277;-36
2023/09/20 15:53:53;;;;;;;0.60;0.50;;;;;;;-128.00;-1.00;-1.00;19060;321;7505237;-31
2023/09/20 15:56:19;;;;;;;1.50;0.70;;;;;;;-128.00;-1.00;-1.00;19087;320;7504587;-33
2023/09/20 15:58:45;;;;;;;0.50;0.20;;;;;;;-128.00;-1.00;-1.00;19108;314;7506770;-33